Terminal Aerodrome Forecast
Issued by NWS

Home | Current Version | Previous Version | Text Only | Print | Product List | Glossary On
Versions: 1 2 3 4 5 6 7 8 9 10 11 12 13 14
000
FTUS46 KSGX 260500
TAFTRM
TAF
KTRM 260520Z 2606/2706 33006KT P6SM FEW200
     FM261400 VRB06KT P6SM VCSH SCT050 OVC100
     FM261800 VRB06KT 6SM -SHRA BKN030 OVC060
     FM270400 VRB06KT P6SM VCSH BKN040 OVC070=

USA.gov is the U.S. government's official web portal to all federal, state and local government web resources and services.